Main page
METAR-TAF:

METAR-TAF

Airports :

Djerba–Zarzis International Airport

Djerba, Tunisia

latitude: 33-52N, longitude: 010-46E, elevation: 3 m

Current weather observation

The report was made 44 minutes ago, at 08:00 UTC
Wind 12 kt from the North
Temperature 12°C
Humidity 76%
Pressure 1028 hPa
Visibility 10 km or more
Scattered clouds at a height of 2300 ft

METAR: DTTJ 250800Z 01012KT 9999 SCT023 12/08 Q1028 NOSIG

Time: 09:44 (08:44 UTC)

Forecast

The report was made 3 hours and 44 minutes ago, at 05:00 UTC
Forecast valid from 25 at 06 UTC to 26 at 06 UTC
Wind 10 kt from the North
Visibility 10 km or more
Few clouds at a height of 2300 ft
Becoming
from 25 at 11 UTC to 25 at 13 UTC
Wind 12 kt from the Northeast
Becoming
from 25 at 21 UTC to 25 at 23 UTC
Wind 3 kt from variable directions

TAF: DTTJ 250500Z 2506/2606 36010KT 9999 FEW023 BECMG 2511/2513 05012KT BECMG 2521/2523 VRB03KT

Weather observations and forecasts of more than 4000 airports (METAR and TAF reports).

The available stations are represented by yellow and red dots on the map.

Hover mouse over dot to see the name of the station.

Then click to see weather observations and forecasts.

To change the map : click on the green buttons with a black cross to zoom in, on the green button with a dash to zoom out, or on the green arrows for adjacent maps.


METAR-TAF: